createdAt,value
2023-02-08T00:00:06.883Z,96.90
2023-02-08T00:02:33.601Z,97.00
2023-02-08T00:05:00.323Z,97.10
2023-02-08T00:07:27.135Z,97.20
2023-02-08T00:09:53.862Z,97.30
2023-02-08T00:12:20.537Z,97.40
2023-02-08T00:14:47.353Z,97.30
2023-02-08T00:17:14.068Z,97.40
2023-02-08T00:19:40.822Z,97.60
2023-02-08T00:22:07.544Z,97.70
2023-02-08T00:24:34.253Z,97.50
2023-02-08T00:27:00.956Z,97.20
2023-02-08T00:29:27.666Z,97.50
2023-02-08T00:31:54.442Z,97.20
2023-02-08T00:34:21.162Z,97.40
2023-02-08T00:36:47.956Z,97.40
2023-02-08T00:39:14.980Z,97.10
2023-02-08T00:41:41.718Z,97.20
2023-02-08T00:44:08.446Z,97.20
2023-02-08T00:46:36.826Z,97.20
2023-02-08T00:49:03.960Z,97.00
2023-02-08T00:51:30.842Z,97.00
2023-02-08T00:53:57.552Z,97.00
2023-02-08T00:56:24.283Z,96.90
2023-02-08T00:58:50.970Z,97.00
2023-02-08T01:01:17.774Z,97.10
2023-02-08T01:03:45.060Z,96.90
2023-02-08T01:06:15.833Z,97.00
2023-02-08T01:08:42.777Z,96.90
2023-02-08T01:11:17.550Z,96.90
2023-02-08T01:13:44.998Z,96.90
2023-02-08T01:16:14.549Z,96.90
2023-02-08T01:18:42.829Z,97.10
2023-02-08T01:21:13.760Z,97.10
2023-02-08T01:23:41.523Z,97.10
2023-02-08T01:26:09.352Z,97.20
2023-02-08T01:28:36.850Z,97.20
2023-02-08T01:33:37.206Z,97.20
2023-02-08T01:36:05.091Z,97.30
2023-02-08T01:38:32.870Z,97.40
2023-02-08T01:41:00.126Z,97.40
2023-02-08T01:43:33.503Z,97.50
2023-02-08T01:46:00.686Z,97.50
2023-02-08T01:48:30.253Z,97.60
2023-02-08T01:51:10.311Z,97.60
2023-02-08T01:53:38.364Z,97.60
2023-02-08T01:56:09.544Z,97.70
2023-02-08T01:58:41.848Z,97.80
2023-02-08T02:01:09.606Z,97.80
2023-02-08T02:03:36.424Z,98.00
2023-02-08T02:06:22.075Z,98.10
2023-02-08T02:09:02.940Z,98.00
2023-02-08T02:11:29.868Z,98.20
2023-02-08T02:13:57.616Z,98.30
2023-02-08T02:16:24.410Z,98.50
2023-02-08T02:18:51.277Z,98.60
2023-02-08T02:21:36.986Z,98.70
2023-02-08T02:24:32.576Z,98.80
2023-02-08T02:27:27.645Z,99.00
2023-02-08T02:30:32.111Z,99.10
2023-02-08T02:33:04.970Z,99.20
2023-02-08T02:35:52.142Z,99.40
2023-02-08T02:38:35.869Z,99.60
2023-02-08T02:41:44.231Z,99.60
2023-02-08T02:44:26.756Z,99.70
2023-02-08T02:47:06.382Z,99.80
2023-02-08T02:49:39.312Z,99.80
2023-02-08T02:52:15.153Z,99.70
2023-02-08T02:54:44.963Z,99.70
2023-02-08T02:57:16.397Z,99.70
2023-02-08T02:59:45.338Z,99.70
2023-02-08T03:02:13.005Z,99.70
2023-02-08T03:04:39.733Z,99.60
2023-02-08T03:07:18.814Z,99.60
2023-02-08T03:10:07.398Z,99.60
2023-02-08T03:13:12.858Z,99.80
2023-02-08T03:16:01.621Z,99.70
2023-02-08T03:18:47.715Z,99.90
2023-02-08T03:21:42.394Z,99.90
2023-02-08T03:24:27.368Z,99.90
2023-02-08T03:27:35.726Z,99.90
2023-02-08T03:30:21.265Z,99.90
2023-02-08T03:33:00.042Z,99.90
2023-02-08T03:35:52.333Z,99.90
2023-02-08T03:38:41.757Z,99.90
2023-02-08T03:41:14.609Z,99.90
2023-02-08T03:43:54.441Z,99.90
2023-02-08T03:46:22.876Z,99.90
2023-02-08T03:51:20.025Z,99.90
2023-02-08T03:53:48.237Z,99.90
2023-02-08T03:56:21.580Z,99.90
2023-02-08T03:58:55.769Z,99.90
2023-02-08T04:01:33.278Z,99.90
2023-02-08T04:04:01.117Z,99.90
2023-02-08T04:06:28.241Z,99.90
2023-02-08T04:08:56.036Z,99.90
2023-02-08T04:11:22.790Z,99.90
2023-02-08T04:13:49.499Z,99.90
2023-02-08T04:16:16.198Z,99.90
2023-02-08T04:18:43.034Z,99.90
2023-02-08T04:21:09.748Z,99.90
2023-02-08T04:23:36.455Z,99.90
2023-02-08T04:26:04.087Z,99.90
2023-02-08T04:28:30.886Z,99.90
2023-02-08T04:30:58.076Z,99.90
2023-02-08T04:33:25.006Z,99.90
2023-02-08T04:35:52.095Z,99.90
2023-02-08T04:38:18.817Z,99.90
2023-02-08T04:40:45.520Z,99.90
2023-02-08T04:43:12.258Z,99.90
2023-02-08T04:45:39.018Z,99.90
2023-02-08T04:48:07.360Z,99.90
2023-02-08T04:50:35.306Z,99.90
2023-02-08T04:53:02.147Z,99.90
2023-02-08T04:55:28.852Z,99.90
2023-02-08T04:57:55.627Z,99.90
2023-02-08T05:00:22.435Z,99.90
2023-02-08T05:02:57.051Z,99.90
2023-02-08T05:05:26.028Z,99.90
2023-02-08T05:07:53.138Z,99.90
2023-02-08T05:10:20.191Z,99.90
2023-02-08T05:12:46.960Z,99.90
2023-02-08T05:15:13.775Z,99.90
2023-02-08T05:17:40.504Z,99.90
2023-02-08T05:20:08.157Z,99.90
2023-02-08T05:22:34.866Z,99.90
2023-02-08T05:25:01.761Z,99.90
2023-02-08T05:27:28.607Z,99.90
2023-02-08T05:29:56.026Z,99.90
2023-02-08T05:32:23.886Z,99.90
2023-02-08T05:34:50.556Z,99.90
2023-02-08T05:37:17.253Z,99.90
2023-02-08T05:39:43.970Z,99.90
2023-02-08T05:42:10.699Z,99.90
2023-02-08T05:44:37.436Z,99.90
2023-02-08T05:47:04.265Z,99.90
2023-02-08T05:49:31.136Z,99.90
2023-02-08T05:51:57.882Z,99.90
2023-02-08T05:54:24.742Z,99.90
2023-02-08T05:56:51.447Z,99.90
2023-02-08T05:59:18.154Z,99.90
2023-02-08T06:01:44.836Z,99.90
2023-02-08T06:04:11.611Z,99.90
2023-02-08T06:06:38.370Z,99.90
2023-02-08T06:09:05.134Z,99.90
2023-02-08T06:11:31.945Z,99.90
2023-02-08T06:13:58.642Z,99.90
2023-02-08T06:16:25.448Z,99.90
2023-02-08T06:18:52.150Z,99.90
2023-02-08T06:21:19.030Z,99.90
2023-02-08T06:23:45.878Z,99.90
2023-02-08T06:26:12.600Z,99.90
2023-02-08T06:28:39.321Z,99.90
2023-02-08T06:31:06.033Z,99.90
2023-02-08T06:33:32.750Z,99.90
2023-02-08T06:35:59.447Z,99.90
2023-02-08T06:38:26.259Z,99.90
2023-02-08T06:40:53.006Z,99.90
2023-02-08T06:43:20.220Z,99.90
2023-02-08T06:45:47.630Z,99.90
2023-02-08T06:48:14.805Z,99.90
2023-02-08T06:50:41.955Z,99.90
2023-02-08T06:53:08.963Z,99.90
2023-02-08T06:55:35.759Z,99.90
2023-02-08T06:58:02.520Z,99.90
2023-02-08T07:00:29.385Z,99.90
2023-02-08T07:02:56.280Z,99.90
2023-02-08T07:05:23.002Z,99.90
2023-02-08T07:07:49.902Z,99.90
2023-02-08T07:10:17.010Z,99.90
2023-02-08T07:12:43.725Z,99.90
2023-02-08T07:15:13.215Z,99.90
2023-02-08T07:17:40.229Z,99.90
2023-02-08T07:20:07.478Z,99.90
2023-02-08T07:22:34.469Z,99.90
2023-02-08T07:25:01.298Z,99.90
2023-02-08T07:27:28.241Z,99.90
2023-02-08T07:29:55.139Z,99.90
2023-02-08T07:32:21.914Z,99.90
2023-02-08T07:34:48.600Z,99.90
2023-02-08T07:37:15.377Z,99.90
2023-02-08T07:39:42.293Z,99.90
2023-02-08T07:42:09.845Z,99.90
2023-02-08T07:44:40.022Z,99.90
2023-02-08T07:47:06.837Z,99.90
2023-02-08T07:49:33.955Z,99.90
2023-02-08T07:52:01.661Z,99.90
2023-02-08T07:54:29.449Z,99.90
2023-02-08T07:56:56.779Z,99.90
2023-02-08T07:59:23.691Z,99.90
2023-02-08T08:01:50.642Z,99.90
2023-02-08T08:04:17.482Z,99.90
2023-02-08T08:06:46.470Z,99.90
2023-02-08T08:09:15.322Z,99.90
2023-02-08T08:11:42.082Z,99.90
2023-02-08T08:14:08.827Z,99.90
2023-02-08T08:16:35.560Z,99.90
2023-02-08T08:19:02.287Z,99.90
2023-02-08T08:21:28.962Z,99.90
2023-02-08T08:23:55.682Z,99.90
2023-02-08T08:26:22.520Z,99.90
2023-02-08T08:28:49.316Z,99.50
2023-02-08T08:31:22.059Z,99.30
2023-02-08T08:33:49.357Z,98.60
2023-02-08T08:36:16.087Z,98.80
2023-02-08T08:38:42.786Z,97.00
2023-02-08T08:41:11.767Z,95.90
2023-02-08T08:43:38.536Z,95.90
2023-02-08T08:46:06.901Z,96.70
2023-02-08T08:48:34.918Z,96.50
2023-02-08T08:51:01.904Z,97.50
2023-02-08T08:53:28.906Z,96.90
2023-02-08T08:55:55.634Z,97.60
2023-02-08T08:58:22.357Z,98.00
2023-02-08T09:00:49.435Z,97.50
2023-02-08T09:03:16.388Z,98.00
2023-02-08T09:05:43.132Z,96.80
2023-02-08T09:08:09.983Z,95.50
2023-02-08T09:10:36.856Z,95.10
2023-02-08T09:13:03.682Z,95.00
2023-02-08T09:15:30.511Z,93.60
2023-02-08T09:17:57.201Z,91.80
2023-02-08T09:20:24.114Z,90.00
2023-02-08T09:22:51.182Z,85.10
2023-02-08T09:25:18.030Z,82.30
2023-02-08T09:27:44.776Z,74.80
2023-02-08T09:30:11.794Z,70.30
2023-02-08T09:32:39.947Z,61.90
2023-02-08T09:35:08.149Z,60.00
2023-02-08T09:37:35.246Z,59.20
2023-02-08T09:40:02.134Z,60.20
2023-02-08T09:42:47.856Z,61.00
2023-02-08T09:45:58.976Z,62.80
2023-02-08T09:48:34.610Z,61.70
2023-02-08T09:53:44.109Z,64.40
2023-02-08T09:56:15.618Z,67.40
2023-02-08T09:58:53.085Z,70.20
2023-02-08T10:01:31.807Z,71.40
2023-02-08T10:04:21.977Z,72.90
2023-02-08T10:06:50.162Z,74.90
2023-02-08T10:09:21.758Z,76.50
2023-02-08T10:11:58.391Z,78.20
2023-02-08T10:14:34.390Z,78.40
2023-02-08T10:17:45.820Z,78.90
2023-02-08T10:20:30.841Z,80.00
2023-02-08T10:23:15.849Z,80.20
2023-02-08T10:26:15.241Z,79.50
2023-02-08T10:29:07.549Z,79.10
2023-02-08T10:31:59.075Z,78.80
2023-02-08T10:34:39.288Z,78.30
2023-02-08T10:37:25.020Z,79.10
2023-02-08T10:39:52.132Z,79.80
2023-02-08T10:42:22.317Z,80.20
2023-02-08T10:44:56.288Z,82.00
2023-02-08T10:47:43.818Z,81.20
2023-02-08T10:50:30.276Z,81.50
2023-02-08T10:52:57.197Z,81.30
2023-02-08T10:55:24.016Z,80.80
2023-02-08T10:57:54.655Z,80.70
2023-02-08T11:00:31.277Z,80.90
2023-02-08T11:03:03.311Z,80.30
2023-02-08T11:05:37.497Z,81.10
2023-02-08T11:08:10.539Z,81.50
2023-02-08T11:10:39.301Z,81.80
2023-02-08T11:13:17.061Z,82.00
2023-02-08T11:15:48.085Z,81.90
2023-02-08T11:18:40.199Z,81.90
2023-02-08T11:21:33.205Z,81.80
2023-02-08T11:24:06.532Z,82.00
2023-02-08T11:26:40.177Z,81.80
2023-02-08T11:29:23.144Z,81.70
2023-02-08T11:31:59.349Z,81.20
2023-02-08T11:34:32.706Z,81.40
2023-02-08T11:37:03.338Z,81.40
2023-02-08T11:39:39.538Z,80.20
2023-02-08T11:42:07.267Z,80.40
2023-02-08T11:44:36.702Z,79.70
2023-02-08T11:47:07.243Z,80.10
2023-02-08T11:49:42.684Z,81.30
2023-02-08T11:52:32.648Z,83.30
2023-02-08T11:55:24.803Z,83.30
2023-02-08T11:58:05.962Z,84.40
2023-02-08T12:00:38.263Z,85.50
2023-02-08T12:03:15.775Z,85.30
2023-02-08T12:06:06.838Z,85.30
2023-02-08T12:08:42.540Z,86.50
2023-02-08T12:11:18.513Z,86.00
2023-02-08T12:14:13.297Z,86.70
2023-02-08T12:16:58.565Z,87.10
2023-02-08T12:19:44.102Z,87.40
2023-02-08T12:22:18.919Z,88.80
2023-02-08T12:25:09.690Z,89.80
2023-02-08T12:27:51.437Z,89.60
2023-02-08T12:30:35.508Z,89.50
2023-02-08T12:33:35.515Z,90.40
2023-02-08T12:36:14.222Z,90.60
2023-02-08T12:39:07.746Z,91.20
2023-02-08T12:41:55.694Z,90.90
2023-02-08T12:44:54.747Z,91.00
2023-02-08T12:48:04.511Z,90.80
2023-02-08T12:50:36.556Z,90.60
2023-02-08T12:53:18.316Z,91.00
2023-02-08T12:55:46.945Z,91.70
2023-02-08T12:58:35.094Z,92.00
2023-02-08T13:01:09.609Z,92.40
2023-02-08T13:03:42.329Z,93.00
2023-02-08T13:06:16.041Z,93.20
2023-02-08T13:09:13.591Z,93.40
2023-02-08T13:11:46.795Z,93.60
2023-02-08T13:14:53.570Z,93.90
2023-02-08T13:17:30.238Z,94.00
2023-02-08T13:20:07.577Z,94.20
2023-02-08T13:22:42.809Z,94.00
2023-02-08T13:25:36.756Z,94.40
2023-02-08T13:28:06.364Z,94.40
2023-02-08T13:30:39.805Z,94.70
2023-02-08T13:33:20.801Z,94.70
2023-02-08T13:35:52.998Z,94.80
2023-02-08T13:38:34.867Z,94.90
2023-02-08T13:41:08.132Z,95.10
2023-02-08T13:43:53.596Z,95.00
2023-02-08T13:46:21.844Z,95.00
2023-02-08T13:48:56.640Z,95.10
2023-02-08T13:51:32.623Z,95.00
2023-02-08T13:54:02.397Z,95.20
2023-02-08T13:56:51.669Z,95.20
2023-02-08T13:59:25.396Z,94.70
2023-02-08T14:02:14.919Z,94.50
2023-02-08T14:04:46.657Z,94.40
2023-02-08T14:07:44.828Z,94.30
2023-02-08T14:10:26.492Z,94.30
2023-02-08T14:13:02.277Z,94.70
2023-02-08T14:15:35.036Z,94.90
2023-02-08T14:18:02.404Z,94.50
2023-02-08T14:20:32.126Z,94.60
2023-02-08T14:23:07.045Z,94.60
2023-02-08T14:25:45.203Z,94.50
2023-02-08T14:28:46.262Z,94.70
2023-02-08T14:31:14.941Z,94.70
2023-02-08T14:33:50.202Z,94.50
2023-02-08T14:36:33.861Z,94.70
2023-02-08T14:39:26.362Z,94.60
2023-02-08T14:42:09.546Z,94.60
2023-02-08T14:44:39.379Z,94.60
2023-02-08T14:47:16.896Z,94.70
2023-02-08T14:49:45.335Z,95.20
2023-02-08T14:52:17.807Z,94.60
2023-02-08T14:55:08.170Z,94.50
2023-02-08T14:57:36.886Z,94.30
2023-02-08T15:00:16.156Z,94.00
2023-02-08T15:02:45.766Z,93.90
2023-02-08T15:05:27.687Z,93.60
2023-02-08T15:07:59.575Z,93.00
2023-02-08T15:10:28.608Z,93.00
2023-02-08T15:13:03.667Z,93.00
2023-02-08T15:15:43.902Z,93.30
2023-02-08T15:18:22.550Z,93.30
2023-02-08T15:21:00.455Z,93.60
2023-02-08T15:23:27.235Z,93.60
2023-02-08T15:25:57.387Z,93.60
2023-02-08T15:28:25.284Z,93.60
2023-02-08T15:31:06.335Z,93.70
2023-02-08T15:33:33.750Z,94.10
2023-02-08T15:36:07.855Z,94.00
2023-02-08T15:38:38.749Z,94.10
2023-02-08T15:41:13.159Z,94.10
2023-02-08T15:43:41.756Z,93.90
2023-02-08T15:46:26.759Z,94.00
2023-02-08T15:48:54.633Z,94.10
2023-02-08T15:53:52.272Z,94.40
2023-02-08T15:56:37.230Z,94.50
2023-02-08T15:59:06.367Z,94.50
2023-02-08T16:01:33.913Z,94.70
2023-02-08T16:04:12.270Z,94.90
2023-02-08T16:06:57.036Z,95.00
2023-02-08T16:09:28.321Z,94.70
2023-02-08T16:11:59.110Z,94.80
2023-02-08T16:14:29.799Z,94.90
2023-02-08T16:16:58.593Z,95.00
2023-02-08T16:19:30.553Z,95.00
2023-02-08T16:22:20.172Z,95.20
2023-02-08T16:24:47.716Z,95.40
2023-02-08T16:27:31.107Z,95.50
2023-02-08T16:29:59.027Z,95.60
2023-02-08T16:32:32.451Z,95.60
2023-02-08T16:35:01.304Z,95.60
2023-02-08T16:37:31.476Z,95.70
2023-02-08T16:40:00.275Z,95.90
2023-02-08T16:42:41.030Z,95.90
2023-02-08T16:45:12.618Z,95.90
2023-02-08T16:47:49.926Z,96.00
2023-02-08T16:50:23.609Z,96.10
2023-02-08T16:52:58.704Z,96.30
2023-02-08T16:55:29.822Z,96.30
2023-02-08T16:57:58.710Z,96.30
2023-02-08T17:00:28.516Z,96.20
2023-02-08T17:02:56.408Z,96.20
2023-02-08T17:05:26.294Z,96.30
2023-02-08T17:07:53.229Z,96.40
2023-02-08T17:10:32.196Z,96.60
2023-02-08T17:13:18.360Z,96.80
2023-02-08T17:15:48.838Z,96.80
2023-02-08T17:18:15.961Z,96.90
2023-02-08T17:20:43.290Z,97.00
2023-02-08T17:23:11.438Z,97.10
2023-02-08T17:25:38.812Z,97.20
2023-02-08T17:28:14.280Z,97.40
2023-02-08T17:30:43.065Z,97.60
2023-02-08T17:33:19.928Z,97.60
2023-02-08T17:35:49.224Z,97.70
2023-02-08T17:38:16.346Z,97.80
2023-02-08T17:40:43.337Z,98.00
2023-02-08T17:43:12.199Z,98.10
2023-02-08T17:45:40.742Z,98.20
2023-02-08T17:48:07.860Z,98.30
2023-02-08T17:50:35.223Z,98.40
2023-02-08T17:53:03.473Z,98.50
2023-02-08T17:55:30.330Z,98.90
2023-02-08T17:57:57.230Z,98.80
2023-02-08T18:00:25.237Z,98.80
2023-02-08T18:02:54.212Z,99.00
2023-02-08T18:05:26.405Z,99.10
2023-02-08T18:07:54.869Z,99.20
2023-02-08T18:10:23.054Z,99.20
2023-02-08T18:12:50.207Z,99.40
2023-02-08T18:15:20.361Z,99.50
2023-02-08T18:17:47.934Z,99.50
2023-02-08T18:20:15.366Z,99.70
2023-02-08T18:22:45.635Z,99.80
2023-02-08T18:25:13.391Z,99.90
2023-02-08T18:27:41.311Z,99.90
2023-02-08T18:30:08.959Z,99.90
2023-02-08T18:32:35.710Z,99.90
2023-02-08T18:35:04.093Z,99.90
2023-02-08T18:37:32.030Z,99.90
2023-02-08T18:39:59.656Z,99.90
2023-02-08T18:42:26.667Z,99.90
2023-02-08T18:44:53.406Z,99.90
2023-02-08T18:47:20.235Z,99.90
2023-02-08T18:49:47.736Z,99.90
2023-02-08T18:52:17.640Z,99.90
2023-02-08T18:54:44.365Z,99.90
2023-02-08T18:57:11.393Z,99.90
2023-02-08T18:59:39.023Z,99.90
2023-02-08T19:02:07.365Z,99.90
2023-02-08T19:04:38.631Z,99.90
2023-02-08T19:07:06.807Z,99.90
2023-02-08T19:09:38.257Z,99.90
2023-02-08T19:12:06.009Z,99.90
2023-02-08T19:14:32.889Z,99.90
2023-02-08T19:17:00.401Z,99.90
2023-02-08T19:19:27.130Z,99.90
2023-02-08T19:21:53.938Z,99.90
2023-02-08T19:24:20.680Z,99.90
2023-02-08T19:26:48.123Z,99.90
2023-02-08T19:29:17.229Z,99.90
2023-02-08T19:31:45.128Z,99.90
2023-02-08T19:34:12.915Z,99.90
2023-02-08T19:36:49.276Z,99.90
2023-02-08T19:39:18.604Z,99.90
2023-02-08T19:41:46.642Z,99.90
2023-02-08T19:44:16.852Z,99.90
2023-02-08T19:46:48.329Z,99.90
2023-02-08T19:49:15.303Z,99.90
2023-02-08T19:51:42.184Z,99.90
2023-02-08T19:54:13.276Z,99.90
2023-02-08T19:56:40.709Z,99.90
2023-02-08T19:59:15.011Z,99.90
2023-02-08T20:01:41.817Z,99.90
2023-02-08T20:04:08.570Z,99.90
2023-02-08T20:06:38.744Z,99.90
2023-02-08T20:09:07.112Z,99.90
2023-02-08T20:11:38.738Z,99.90
2023-02-08T20:14:12.062Z,99.90
2023-02-08T20:16:38.823Z,99.90
2023-02-08T20:19:05.809Z,99.90
2023-02-08T20:21:32.858Z,99.90
2023-02-08T20:24:01.354Z,99.90
2023-02-08T20:26:29.728Z,99.90
2023-02-08T20:28:58.293Z,99.90
2023-02-08T20:31:30.616Z,99.90
2023-02-08T20:33:59.768Z,99.90
2023-02-08T20:36:29.106Z,99.90
2023-02-08T20:38:57.156Z,99.90
2023-02-08T20:41:26.573Z,99.90
2023-02-08T20:43:53.967Z,99.90
2023-02-08T20:46:30.994Z,99.90
2023-02-08T20:48:59.309Z,99.90
2023-02-08T20:51:26.937Z,99.90
2023-02-08T20:53:54.844Z,99.90
2023-02-08T20:56:27.447Z,99.90
2023-02-08T20:58:55.323Z,99.90
2023-02-08T21:01:28.041Z,99.90
2023-02-08T21:03:56.328Z,99.90
2023-02-08T21:06:29.551Z,99.90
2023-02-08T21:09:01.803Z,99.90
2023-02-08T21:11:31.366Z,99.90
2023-02-08T21:14:01.319Z,99.90
2023-02-08T21:16:28.407Z,99.90
2023-02-08T21:18:57.152Z,99.90
2023-02-08T21:21:24.768Z,99.90
2023-02-08T21:23:51.891Z,99.90
2023-02-08T21:26:20.364Z,99.90
2023-02-08T21:28:47.169Z,99.90
2023-02-08T21:31:17.626Z,99.90
2023-02-08T21:33:44.801Z,99.90
2023-02-08T21:36:18.278Z,99.90
2023-02-08T21:38:45.333Z,99.90
2023-02-08T21:41:16.428Z,99.90
2023-02-08T21:43:43.255Z,99.90
2023-02-08T21:46:10.264Z,99.90
2023-02-08T21:48:55.900Z,99.90
2023-02-08T21:51:42.419Z,99.90
2023-02-08T21:56:43.002Z,99.90
2023-02-08T21:59:09.708Z,99.90
2023-02-08T22:01:36.437Z,99.90
2023-02-08T22:04:03.216Z,99.90
2023-02-08T22:06:49.001Z,99.90
2023-02-08T22:09:17.126Z,99.90
2023-02-08T22:11:43.982Z,99.90
2023-02-08T22:14:13.639Z,99.90
2023-02-08T22:16:41.474Z,99.90
2023-02-08T22:19:08.867Z,99.90
2023-02-08T22:21:35.617Z,99.90
2023-02-08T22:24:02.327Z,99.90
2023-02-08T22:26:29.096Z,99.90
2023-02-08T22:28:55.882Z,99.90
2023-02-08T22:31:22.781Z,99.90
2023-02-08T22:33:53.416Z,99.90
2023-02-08T22:36:20.550Z,99.90
2023-02-08T22:38:47.309Z,99.90
2023-02-08T22:41:16.300Z,99.90
2023-02-08T22:43:43.481Z,99.90
2023-02-08T22:46:10.417Z,99.90
2023-02-08T22:48:37.599Z,99.90
2023-02-08T22:51:17.022Z,99.90
2023-02-08T22:53:45.001Z,99.90
2023-02-08T22:56:14.850Z,99.90
2023-02-08T22:58:41.493Z,99.90
2023-02-08T23:01:16.918Z,99.90
2023-02-08T23:03:43.978Z,99.90
2023-02-08T23:06:14.952Z,99.90
2023-02-08T23:08:41.830Z,99.90
2023-02-08T23:11:08.659Z,99.90
2023-02-08T23:13:35.551Z,99.90
2023-02-08T23:16:02.670Z,99.90
2023-02-08T23:18:29.360Z,99.90
2023-02-08T23:20:56.169Z,99.90
2023-02-08T23:23:23.058Z,99.90
2023-02-08T23:25:49.807Z,99.90
2023-02-08T23:28:16.558Z,99.90
2023-02-08T23:30:44.051Z,99.90
2023-02-08T23:33:10.961Z,99.90
2023-02-08T23:35:41.643Z,99.90
2023-02-08T23:38:09.061Z,99.90
2023-02-08T23:40:36.036Z,99.90
2023-02-08T23:43:02.812Z,99.90
2023-02-08T23:45:29.490Z,99.90
2023-02-08T23:47:56.194Z,99.90
2023-02-08T23:50:23.066Z,99.90
2023-02-08T23:52:49.870Z,99.90
2023-02-08T23:55:16.806Z,99.90
2023-02-08T23:57:43.528Z,99.90
